createdAt,value
2023-05-09T00:02:16.081Z,13.68
2023-05-09T00:04:42.401Z,13.60
2023-05-09T00:07:10.315Z,14.02
2023-05-09T00:09:36.615Z,13.82
2023-05-09T00:12:02.834Z,13.93
2023-05-09T00:14:29.027Z,15.05
2023-05-09T00:16:57.233Z,14.05
2023-05-09T00:19:23.704Z,15.55
2023-05-09T00:21:50.176Z,14.55
2023-05-09T00:24:16.389Z,14.65
2023-05-09T00:26:42.830Z,15.70
2023-05-09T00:29:09.067Z,15.52
2023-05-09T00:31:36.184Z,14.55
2023-05-09T00:34:02.415Z,15.70
2023-05-09T00:36:28.677Z,14.60
2023-05-09T00:38:54.893Z,14.70
2023-05-09T00:41:21.446Z,15.25
2023-05-09T00:43:47.637Z,15.40
2023-05-09T00:46:13.982Z,17.52
2023-05-09T00:48:40.525Z,16.50
2023-05-09T00:51:07.041Z,15.15
2023-05-09T00:53:33.668Z,16.52
2023-05-09T00:56:00.302Z,16.88
2023-05-09T00:58:26.976Z,17.52
2023-05-09T01:00:53.175Z,15.90
2023-05-09T01:03:19.537Z,14.82
2023-05-09T01:05:54.580Z,15.82
2023-05-09T01:08:30.969Z,17.58
2023-05-09T01:11:06.402Z,15.88
2023-05-09T01:13:50.995Z,14.75
2023-05-09T01:16:26.415Z,15.40
2023-05-09T01:19:00.366Z,18.00
2023-05-09T01:21:29.165Z,17.25
2023-05-09T01:24:13.996Z,16.55
2023-05-09T01:27:05.839Z,15.63
2023-05-09T01:31:59.299Z,18.92
2023-05-09T01:34:26.642Z,16.73
2023-05-09T01:36:55.648Z,17.45
2023-05-09T01:39:24.322Z,16.25
2023-05-09T01:41:51.580Z,16.48
2023-05-09T01:44:18.342Z,16.98
2023-05-09T01:46:44.788Z,17.08
2023-05-09T01:49:11.548Z,20.88
2023-05-09T01:51:38.431Z,15.10
2023-05-09T01:54:05.781Z,15.82
2023-05-09T01:56:32.246Z,17.33
2023-05-09T01:58:59.052Z,15.68
2023-05-09T02:01:26.188Z,17.08
2023-05-09T02:03:53.288Z,15.80
2023-05-09T02:06:20.725Z,16.77
2023-05-09T02:08:47.160Z,17.23
2023-05-09T02:11:13.406Z,17.85
2023-05-09T02:13:39.748Z,19.20
2023-05-09T02:16:07.692Z,20.42
2023-05-09T02:18:35.326Z,16.77
2023-05-09T02:21:02.160Z,16.70
2023-05-09T02:23:28.411Z,17.25
2023-05-09T02:25:54.925Z,19.90
2023-05-09T02:28:22.418Z,19.52
2023-05-09T02:30:49.813Z,18.20
2023-05-09T02:33:16.530Z,22.85
2023-05-09T02:35:44.017Z,19.27
2023-05-09T02:38:10.378Z,19.88
2023-05-09T02:40:36.842Z,19.98
2023-05-09T02:43:03.959Z,19.50
2023-05-09T02:45:30.222Z,20.13
2023-05-09T02:47:56.558Z,21.60
2023-05-09T02:50:22.837Z,17.95
2023-05-09T02:52:49.078Z,22.27
2023-05-09T02:55:15.613Z,21.85
2023-05-09T02:57:42.490Z,19.98
2023-05-09T03:00:09.640Z,19.27
2023-05-09T03:02:36.391Z,21.48
2023-05-09T03:05:03.032Z,20.25
2023-05-09T03:07:29.874Z,19.02
2023-05-09T03:09:56.089Z,19.60
2023-05-09T03:12:22.377Z,18.98
2023-05-09T03:14:48.632Z,18.67
2023-05-09T03:17:21.037Z,20.65
2023-05-09T03:19:48.322Z,21.55
2023-05-09T03:22:14.749Z,20.70
2023-05-09T03:24:40.981Z,20.35
2023-05-09T03:27:07.173Z,23.00
2023-05-09T03:29:33.459Z,19.63
2023-05-09T03:32:00.172Z,18.73
2023-05-09T03:34:26.519Z,24.63
2023-05-09T03:36:52.755Z,19.63
2023-05-09T03:39:18.994Z,21.48
2023-05-09T03:41:45.194Z,19.35
2023-05-09T03:44:11.421Z,20.55
2023-05-09T03:46:37.769Z,21.45
2023-05-09T03:49:04.376Z,20.02
2023-05-09T03:51:30.698Z,19.85
2023-05-09T03:53:56.919Z,19.60
2023-05-09T03:56:23.300Z,19.88
2023-05-09T03:58:49.603Z,18.13
2023-05-09T04:01:15.914Z,20.50
2023-05-09T04:03:42.343Z,25.33
2023-05-09T04:06:08.678Z,21.02
2023-05-09T04:08:34.919Z,21.90
2023-05-09T04:11:01.190Z,23.13
2023-05-09T04:13:28.230Z,24.15
2023-05-09T04:15:54.505Z,24.00
2023-05-09T04:18:20.764Z,25.33
2023-05-09T04:20:47.018Z,26.23
2023-05-09T04:23:13.260Z,26.75
2023-05-09T04:25:39.963Z,25.10
2023-05-09T04:28:06.457Z,25.83
2023-05-09T04:30:32.942Z,22.90
2023-05-09T04:32:59.218Z,25.50
2023-05-09T04:35:26.599Z,23.45
2023-05-09T04:37:52.876Z,22.65
2023-05-09T04:40:19.195Z,23.35
2023-05-09T04:42:45.699Z,24.08
2023-05-09T04:45:12.134Z,22.42
2023-05-09T04:47:38.529Z,21.90
2023-05-09T04:50:05.612Z,23.42
2023-05-09T04:52:31.893Z,23.17
2023-05-09T04:54:58.124Z,22.02
2023-05-09T04:57:24.380Z,24.27
2023-05-09T04:59:50.830Z,23.23
2023-05-09T05:02:17.075Z,22.15
2023-05-09T05:04:43.285Z,20.45
2023-05-09T05:07:09.547Z,22.98
2023-05-09T05:09:35.768Z,24.65
2023-05-09T05:12:03.656Z,24.27
2023-05-09T05:14:31.198Z,21.30
2023-05-09T05:16:57.409Z,24.08
2023-05-09T05:19:23.650Z,23.58
2023-05-09T05:21:49.849Z,24.67
2023-05-09T05:24:16.084Z,19.10
2023-05-09T05:26:42.301Z,24.02
2023-05-09T05:29:08.755Z,24.35
2023-05-09T05:31:35.053Z,26.50
2023-05-09T05:34:01.268Z,19.35
2023-05-09T05:36:27.477Z,21.25
2023-05-09T05:38:53.716Z,20.83
2023-05-09T05:41:19.937Z,23.55
2023-05-09T05:43:46.523Z,25.05
2023-05-09T05:46:12.933Z,26.33
2023-05-09T05:48:39.181Z,23.23
2023-05-09T05:51:05.377Z,22.38
2023-05-09T05:53:32.767Z,21.48
2023-05-09T05:55:59.104Z,23.08
2023-05-09T05:58:25.370Z,23.58
2023-05-09T06:00:52.362Z,24.50
2023-05-09T06:03:18.651Z,20.88
2023-05-09T06:05:45.979Z,23.90
2023-05-09T06:08:12.216Z,23.27
2023-05-09T06:10:38.452Z,35.47
2023-05-09T06:13:04.649Z,24.27
2023-05-09T06:15:31.015Z,24.35
2023-05-09T06:17:57.291Z,21.35
2023-05-09T06:20:23.525Z,21.73
2023-05-09T06:22:49.717Z,21.92
2023-05-09T06:25:16.214Z,19.10
2023-05-09T06:27:42.561Z,21.17
2023-05-09T06:30:23.990Z,18.67
2023-05-09T06:32:52.430Z,20.95
2023-05-09T06:35:18.813Z,20.02
2023-05-09T06:37:46.997Z,22.10
2023-05-09T06:40:14.669Z,19.38
2023-05-09T06:42:40.884Z,17.00
2023-05-09T06:45:07.307Z,15.30
2023-05-09T06:47:33.630Z,19.40
2023-05-09T06:49:59.850Z,14.15
2023-05-09T06:52:26.118Z,13.10
2023-05-09T06:54:53.199Z,13.43
2023-05-09T06:57:19.408Z,10.48
2023-05-09T06:59:45.914Z,13.63
2023-05-09T07:02:12.139Z,10.10
2023-05-09T07:04:38.374Z,10.60
2023-05-09T07:07:04.580Z,10.43
2023-05-09T07:09:31.037Z,9.65
2023-05-09T07:11:57.314Z,8.38
2023-05-09T07:14:23.561Z,8.77
2023-05-09T07:16:50.024Z,8.32
2023-05-09T07:19:16.281Z,8.93
2023-05-09T07:21:42.955Z,8.05
2023-05-09T07:24:09.221Z,9.27
2023-05-09T07:26:35.937Z,9.32
2023-05-09T07:29:02.193Z,8.68
2023-05-09T07:31:28.420Z,7.40
2023-05-09T07:33:54.649Z,7.55
2023-05-09T07:36:20.952Z,8.07
2023-05-09T07:38:54.376Z,9.70
2023-05-09T07:41:20.716Z,6.15
2023-05-09T07:43:47.113Z,6.57
2023-05-09T07:46:13.459Z,6.32
2023-05-09T07:48:39.726Z,6.05
2023-05-09T07:51:05.946Z,7.70
2023-05-09T07:53:32.177Z,5.43
2023-05-09T07:55:58.881Z,6.07
2023-05-09T07:58:25.257Z,5.78
2023-05-09T08:00:51.457Z,5.50
2023-05-09T08:03:17.951Z,5.22
2023-05-09T08:05:44.313Z,5.38
2023-05-09T08:08:10.667Z,4.80
2023-05-09T08:10:36.913Z,5.30
2023-05-09T08:13:03.208Z,5.82
2023-05-09T08:15:29.561Z,5.00
2023-05-09T08:17:55.791Z,4.35
2023-05-09T08:20:22.071Z,4.32
2023-05-09T08:22:48.255Z,3.10
2023-05-09T08:25:16.524Z,4.82
2023-05-09T08:27:42.954Z,4.28
2023-05-09T08:30:09.446Z,3.08
2023-05-09T08:32:35.754Z,3.90
2023-05-09T08:35:01.992Z,3.28
2023-05-09T08:37:28.877Z,3.80
2023-05-09T08:39:55.175Z,3.75
2023-05-09T08:42:24.781Z,2.83
2023-05-09T08:44:52.660Z,2.70
2023-05-09T08:47:21.022Z,3.45
2023-05-09T08:49:47.475Z,3.25
2023-05-09T08:52:13.870Z,4.55
2023-05-09T08:54:40.137Z,2.47
2023-05-09T08:57:06.398Z,2.83
2023-05-09T08:59:35.010Z,3.50
2023-05-09T09:02:01.366Z,3.15
2023-05-09T09:04:27.627Z,3.58
2023-05-09T09:06:54.198Z,4.35
2023-05-09T09:09:20.868Z,5.13
2023-05-09T09:11:47.787Z,2.60
2023-05-09T09:14:20.105Z,2.65
2023-05-09T09:16:47.391Z,2.90
2023-05-09T09:19:16.338Z,2.85
2023-05-09T09:21:44.253Z,2.50
2023-05-09T09:24:12.706Z,3.45
2023-05-09T09:26:48.925Z,2.22
2023-05-09T09:29:15.452Z,2.78
2023-05-09T09:31:44.396Z,5.35
2023-05-09T09:34:10.649Z,2.90
2023-05-09T09:36:36.919Z,4.10
2023-05-09T09:39:07.446Z,4.55
2023-05-09T09:41:34.857Z,4.33
2023-05-09T09:44:08.268Z,3.53
2023-05-09T09:46:48.185Z,3.60
2023-05-09T09:49:15.331Z,4.07
2023-05-09T09:51:41.858Z,3.85
2023-05-09T09:54:08.784Z,3.13
2023-05-09T09:56:45.531Z,3.80
2023-05-09T09:59:16.313Z,4.63
2023-05-09T10:01:55.862Z,3.30
2023-05-09T10:04:22.380Z,3.55
2023-05-09T10:06:55.172Z,4.35
2023-05-09T10:09:22.277Z,3.55
2023-05-09T10:11:50.250Z,3.22
2023-05-09T10:14:17.156Z,5.57
2023-05-09T10:16:44.661Z,3.25
2023-05-09T10:19:11.885Z,2.90
2023-05-09T10:21:39.136Z,3.42
2023-05-09T10:24:05.615Z,3.53
2023-05-09T10:26:33.659Z,4.45
2023-05-09T10:29:01.869Z,4.43
2023-05-09T10:31:29.696Z,4.28
2023-05-09T10:33:56.156Z,6.35
2023-05-09T10:36:23.671Z,5.97
2023-05-09T10:38:53.642Z,3.13
2023-05-09T10:41:21.753Z,6.28
2023-05-09T10:43:48.414Z,3.13
2023-05-09T10:46:14.932Z,5.07
2023-05-09T10:48:42.531Z,3.20
2023-05-09T10:51:09.238Z,3.88
2023-05-09T10:53:43.824Z,5.35
2023-05-09T10:56:22.002Z,2.65
2023-05-09T10:58:48.547Z,4.40
2023-05-09T11:01:27.911Z,3.28
2023-05-09T11:03:58.330Z,4.10
2023-05-09T11:06:39.898Z,3.90
2023-05-09T11:11:32.351Z,3.67
2023-05-09T11:13:58.629Z,4.93
2023-05-09T11:16:26.314Z,2.92
2023-05-09T11:18:53.263Z,5.03
2023-05-09T11:21:20.357Z,3.63
2023-05-09T11:23:47.644Z,4.45
2023-05-09T11:26:14.810Z,4.53
2023-05-09T11:28:41.072Z,3.20
2023-05-09T11:31:15.434Z,3.70
2023-05-09T11:33:42.380Z,3.40
2023-05-09T11:36:18.652Z,3.60
2023-05-09T11:38:46.096Z,3.40
2023-05-09T11:41:12.337Z,2.67
2023-05-09T11:43:39.164Z,3.97
2023-05-09T11:46:05.571Z,5.18
2023-05-09T11:48:37.292Z,2.72
2023-05-09T11:51:03.800Z,4.13
2023-05-09T11:53:30.005Z,2.60
2023-05-09T11:55:56.215Z,5.32
2023-05-09T11:58:22.425Z,3.30
2023-05-09T12:00:48.686Z,4.18
2023-05-09T12:03:15.087Z,2.60
2023-05-09T12:05:42.519Z,3.40
2023-05-09T12:08:09.552Z,3.65
2023-05-09T12:10:39.343Z,2.88
2023-05-09T12:13:05.594Z,3.55
2023-05-09T12:15:37.875Z,3.63
2023-05-09T12:18:05.393Z,3.20
2023-05-09T12:20:44.788Z,2.47
2023-05-09T12:23:12.392Z,4.20
2023-05-09T12:25:38.619Z,6.20
2023-05-09T12:28:05.200Z,2.83
2023-05-09T12:30:31.670Z,5.20
2023-05-09T12:32:58.184Z,3.38
2023-05-09T12:35:24.399Z,3.67
2023-05-09T12:37:57.870Z,2.65
2023-05-09T12:40:24.488Z,2.78
2023-05-09T12:42:53.599Z,2.08
2023-05-09T12:45:19.854Z,2.95
2023-05-09T12:47:51.288Z,2.10
2023-05-09T12:50:17.531Z,2.03
2023-05-09T12:52:58.985Z,2.78
2023-05-09T12:55:29.367Z,2.20
2023-05-09T12:57:59.640Z,3.30
2023-05-09T13:00:26.527Z,2.30
2023-05-09T13:02:53.002Z,2.47
2023-05-09T13:05:20.354Z,2.33
2023-05-09T13:07:47.527Z,3.08
2023-05-09T13:10:15.015Z,3.63
2023-05-09T13:12:45.005Z,3.97
2023-05-09T13:15:11.846Z,3.63
2023-05-09T13:17:38.337Z,2.92
2023-05-09T13:20:05.517Z,3.53
2023-05-09T13:22:31.992Z,3.55
2023-05-09T13:24:58.204Z,2.75
2023-05-09T13:27:24.473Z,2.58
2023-05-09T13:29:51.027Z,3.67
2023-05-09T13:32:17.439Z,2.42
2023-05-09T13:34:43.643Z,3.17
2023-05-09T13:37:09.860Z,4.05
2023-05-09T13:39:36.074Z,3.58
2023-05-09T13:42:02.425Z,2.63
2023-05-09T13:44:28.943Z,4.93
2023-05-09T13:46:55.216Z,3.10
2023-05-09T13:49:21.444Z,2.60
2023-05-09T13:51:47.642Z,2.30
2023-05-09T13:54:15.397Z,2.55
2023-05-09T13:56:44.852Z,2.60
2023-05-09T13:59:11.121Z,2.70
2023-05-09T14:01:37.495Z,2.97
2023-05-09T14:04:03.931Z,2.20
2023-05-09T14:06:30.215Z,4.30
2023-05-09T14:08:56.891Z,3.75
2023-05-09T14:11:23.429Z,3.25
2023-05-09T14:13:49.643Z,2.70
2023-05-09T14:16:15.858Z,2.58
2023-05-09T14:18:42.284Z,2.72
2023-05-09T14:21:08.563Z,6.07
2023-05-09T14:23:34.812Z,4.97
2023-05-09T14:26:01.065Z,6.55
2023-05-09T14:28:27.316Z,5.82
2023-05-09T14:30:53.641Z,7.93
2023-05-09T14:33:19.986Z,5.50
2023-05-09T14:35:47.450Z,5.70
2023-05-09T14:38:13.819Z,6.28
2023-05-09T14:40:40.097Z,6.10
2023-05-09T14:43:06.622Z,6.70
2023-05-09T14:45:33.351Z,6.00
2023-05-09T14:47:59.948Z,6.50
2023-05-09T14:50:26.484Z,6.70
2023-05-09T14:52:52.882Z,4.93
2023-05-09T14:55:19.818Z,6.35
2023-05-09T14:57:46.128Z,6.07
2023-05-09T15:00:21.390Z,9.57
2023-05-09T15:02:48.896Z,5.85
2023-05-09T15:05:15.769Z,5.20
2023-05-09T15:07:42.139Z,6.90
2023-05-09T15:10:08.624Z,6.80
2023-05-09T15:12:35.092Z,6.25
2023-05-09T15:15:12.236Z,8.25
2023-05-09T15:17:38.646Z,10.43
2023-05-09T15:20:05.577Z,7.47
2023-05-09T15:22:33.707Z,6.88
2023-05-09T15:25:00.470Z,7.03
2023-05-09T15:27:26.926Z,8.82
2023-05-09T15:29:53.506Z,8.25
2023-05-09T15:32:19.850Z,7.55
2023-05-09T15:34:46.740Z,6.20
2023-05-09T15:37:13.158Z,7.57
2023-05-09T15:39:43.563Z,7.10
2023-05-09T15:42:12.141Z,6.75
2023-05-09T15:44:38.875Z,7.07
2023-05-09T15:47:05.136Z,6.28
2023-05-09T15:49:32.158Z,7.72
2023-05-09T15:51:58.420Z,6.18
2023-05-09T15:54:27.549Z,6.82
2023-05-09T15:56:54.318Z,7.50
2023-05-09T15:59:21.019Z,5.85
2023-05-09T16:01:47.266Z,8.50
2023-05-09T16:04:13.965Z,6.47
2023-05-09T16:06:40.512Z,6.38
2023-05-09T16:09:06.769Z,6.32
2023-05-09T16:11:33.439Z,6.07
2023-05-09T16:13:59.982Z,5.88
2023-05-09T16:16:26.307Z,7.63
2023-05-09T16:18:52.526Z,6.03
2023-05-09T16:21:19.244Z,7.68
2023-05-09T16:23:45.645Z,6.25
2023-05-09T16:26:11.942Z,6.00
2023-05-09T16:28:40.052Z,5.28
2023-05-09T16:31:08.118Z,4.80
2023-05-09T16:33:34.789Z,5.20
2023-05-09T16:36:01.372Z,5.00
2023-05-09T16:38:27.625Z,4.65
2023-05-09T16:40:54.013Z,8.13
2023-05-09T16:43:20.508Z,4.80
2023-05-09T16:45:49.670Z,5.00
2023-05-09T16:48:17.325Z,4.22
2023-05-09T16:50:45.192Z,4.32
2023-05-09T16:53:12.041Z,6.32
2023-05-09T16:55:38.319Z,4.25
2023-05-09T16:58:04.929Z,5.10
2023-05-09T17:00:31.148Z,3.03
2023-05-09T17:02:57.635Z,4.05
2023-05-09T17:05:24.095Z,5.35
2023-05-09T17:07:50.361Z,4.15
2023-05-09T17:10:16.712Z,4.68
2023-05-09T17:12:43.147Z,4.22
2023-05-09T17:15:11.016Z,4.95
2023-05-09T17:17:37.530Z,6.00
2023-05-09T17:20:04.485Z,4.30
2023-05-09T17:22:30.755Z,5.00
2023-05-09T17:24:57.108Z,5.25
2023-05-09T17:27:23.346Z,5.90
2023-05-09T17:29:50.291Z,4.88
2023-05-09T17:32:16.593Z,6.82
2023-05-09T17:34:43.115Z,6.50
2023-05-09T17:37:09.440Z,6.88
2023-05-09T17:39:37.652Z,6.43
2023-05-09T17:42:04.212Z,5.18
2023-05-09T17:44:30.637Z,6.43
2023-05-09T17:46:58.111Z,4.97
2023-05-09T17:49:24.894Z,5.93
2023-05-09T17:51:52.275Z,5.13
2023-05-09T17:54:21.482Z,4.38
2023-05-09T17:56:50.942Z,4.45
2023-05-09T17:59:17.535Z,4.60
2023-05-09T18:01:43.854Z,5.65
2023-05-09T18:04:10.296Z,3.38
2023-05-09T18:06:36.616Z,3.00
2023-05-09T18:09:03.023Z,3.80
2023-05-09T18:11:29.349Z,3.40
2023-05-09T18:13:55.855Z,3.13
2023-05-09T18:16:22.318Z,3.95
2023-05-09T18:18:48.673Z,2.63
2023-05-09T18:21:14.937Z,2.65
2023-05-09T18:23:41.326Z,3.55
2023-05-09T18:26:08.512Z,3.25
2023-05-09T18:28:39.608Z,2.08
2023-05-09T18:31:06.755Z,3.22
2023-05-09T18:33:41.760Z,2.22
2023-05-09T18:36:11.408Z,1.85
2023-05-09T18:38:40.976Z,1.90
2023-05-09T18:41:08.388Z,3.05
2023-05-09T18:43:35.413Z,5.65
2023-05-09T18:46:03.485Z,2.20
2023-05-09T18:48:29.724Z,3.38
2023-05-09T18:50:56.197Z,2.58
2023-05-09T18:53:23.205Z,3.25
2023-05-09T18:55:49.449Z,2.60
2023-05-09T18:58:15.862Z,2.05
2023-05-09T19:00:42.754Z,2.90
2023-05-09T19:03:09.144Z,4.55
2023-05-09T19:05:35.613Z,3.47
2023-05-09T19:08:03.509Z,2.95
2023-05-09T19:10:29.981Z,4.13
2023-05-09T19:12:56.440Z,4.25
2023-05-09T19:15:23.289Z,1.63
2023-05-09T19:17:49.548Z,1.73
2023-05-09T19:20:16.006Z,2.75
2023-05-09T19:22:46.178Z,4.45
2023-05-09T19:25:12.612Z,2.08
2023-05-09T19:27:38.862Z,3.67
2023-05-09T19:30:05.512Z,1.90
2023-05-09T19:32:31.820Z,1.60
2023-05-09T19:34:58.710Z,3.60
2023-05-09T19:37:24.933Z,2.97
2023-05-09T19:39:51.187Z,2.03
2023-05-09T19:42:17.401Z,2.15
2023-05-09T19:44:43.678Z,2.08
2023-05-09T19:47:10.028Z,1.98
2023-05-09T19:49:36.251Z,2.30
2023-05-09T19:52:02.523Z,2.30
2023-05-09T19:54:28.722Z,1.80
2023-05-09T19:56:54.979Z,1.73
2023-05-09T19:59:21.226Z,1.50
2023-05-09T20:01:47.503Z,2.22
2023-05-09T20:04:13.882Z,1.35
2023-05-09T20:06:41.063Z,1.63
2023-05-09T20:09:07.269Z,3.45
2023-05-09T20:11:33.754Z,4.53
2023-05-09T20:13:59.965Z,2.42
2023-05-09T20:16:26.454Z,1.27
2023-05-09T20:18:52.883Z,1.95
2023-05-09T20:21:19.063Z,1.33
2023-05-09T20:23:45.272Z,2.10
2023-05-09T20:26:11.635Z,1.95
2023-05-09T20:28:38.181Z,1.38
2023-05-09T20:31:04.426Z,1.83
2023-05-09T20:33:30.782Z,1.55
2023-05-09T20:35:57.010Z,3.13
2023-05-09T20:38:23.273Z,1.33
2023-05-09T20:40:49.473Z,1.95
2023-05-09T20:43:15.737Z,1.50
2023-05-09T20:45:42.857Z,1.70
2023-05-09T20:48:09.153Z,1.90
2023-05-09T20:50:35.586Z,2.72
2023-05-09T20:53:01.836Z,1.77
2023-05-09T20:55:28.134Z,2.63
2023-05-09T20:57:54.413Z,1.73
2023-05-09T21:00:20.700Z,3.05
2023-05-09T21:02:47.126Z,2.30
2023-05-09T21:05:13.450Z,2.55
2023-05-09T21:07:39.745Z,2.85
2023-05-09T21:10:06.185Z,2.40
2023-05-09T21:12:32.710Z,2.78
2023-05-09T21:14:58.984Z,2.58
2023-05-09T21:17:25.227Z,2.95
2023-05-09T21:19:51.779Z,2.65
2023-05-09T21:22:18.052Z,2.95
2023-05-09T21:24:44.300Z,4.10
2023-05-09T21:27:10.682Z,5.15
2023-05-09T21:29:36.902Z,4.25
2023-05-09T21:32:03.084Z,4.88
2023-05-09T21:34:29.273Z,3.63
2023-05-09T21:36:55.599Z,3.63
2023-05-09T21:39:21.810Z,3.42
2023-05-09T21:41:48.120Z,3.60
2023-05-09T21:44:14.982Z,3.00
2023-05-09T21:46:43.378Z,3.30
2023-05-09T21:49:09.738Z,3.83
2023-05-09T21:51:35.988Z,4.22
2023-05-09T21:54:02.313Z,3.50
2023-05-09T21:56:28.555Z,3.40
2023-05-09T21:58:54.878Z,4.63
2023-05-09T22:01:21.326Z,3.70
2023-05-09T22:03:47.636Z,4.18
2023-05-09T22:06:13.932Z,3.47
2023-05-09T22:08:40.174Z,4.07
2023-05-09T22:11:07.590Z,3.65
2023-05-09T22:13:35.689Z,3.97
2023-05-09T22:16:02.089Z,3.90
2023-05-09T22:18:28.341Z,3.90
2023-05-09T22:20:54.550Z,4.47
2023-05-09T22:23:20.749Z,3.88
2023-05-09T22:25:46.966Z,3.75
2023-05-09T22:28:13.162Z,5.05
2023-05-09T22:30:39.449Z,4.30
2023-05-09T22:33:05.740Z,3.70
2023-05-09T22:35:32.059Z,5.00
2023-05-09T22:37:58.281Z,5.60
2023-05-09T22:40:24.582Z,4.28
2023-05-09T22:42:51.078Z,3.88
2023-05-09T22:45:17.277Z,6.80
2023-05-09T22:47:44.424Z,5.82
2023-05-09T22:50:11.685Z,5.38
2023-05-09T22:52:38.127Z,4.93
2023-05-09T22:55:04.512Z,4.78
2023-05-09T22:57:31.028Z,4.20
2023-05-09T22:59:57.258Z,5.43
2023-05-09T23:02:23.610Z,4.45
2023-05-09T23:04:52.142Z,5.78
2023-05-09T23:07:18.362Z,5.10
2023-05-09T23:09:44.573Z,5.53
2023-05-09T23:12:10.878Z,5.70
2023-05-09T23:14:37.076Z,6.13
2023-05-09T23:17:03.366Z,5.43
2023-05-09T23:19:29.595Z,5.20
2023-05-09T23:21:58.266Z,4.90
2023-05-09T23:24:24.524Z,5.20
2023-05-09T23:26:50.720Z,5.45
2023-05-09T23:29:16.910Z,6.85
2023-05-09T23:31:43.157Z,5.65
2023-05-09T23:34:09.458Z,5.70
2023-05-09T23:36:35.672Z,6.25
2023-05-09T23:39:01.923Z,5.75
2023-05-09T23:41:28.132Z,6.82
2023-05-09T23:43:54.445Z,5.75
2023-05-09T23:46:21.077Z,6.82
2023-05-09T23:48:47.319Z,7.90
2023-05-09T23:51:13.594Z,6.68
2023-05-09T23:53:39.803Z,7.35
2023-05-09T23:56:06.328Z,7.13
2023-05-09T23:58:32.572Z,9.25
